sensor_id;sensor_type;location;lat;lon;timestamp;P1;durP1;ratioP1;P2;durP2;ratioP2
8098;SDS011;4092;47.876;9.372;2023-03-08T00:02:14;4.47;;;3.70;;
8098;SDS011;4092;47.876;9.372;2023-03-08T00:04:42;10.30;;;3.67;;
8098;SDS011;4092;47.876;9.372;2023-03-08T00:07:09;4.37;;;2.80;;
8098;SDS011;4092;47.876;9.372;2023-03-08T00:09:36;9.03;;;3.20;;
8098;SDS011;4092;47.876;9.372;2023-03-08T00:12:04;5.70;;;2.87;;
8098;SDS011;4092;47.876;9.372;2023-03-08T00:14:32;6.10;;;3.00;;
8098;SDS011;4092;47.876;9.372;2023-03-08T00:16:59;3.73;;;2.70;;
8098;SDS011;4092;47.876;9.372;2023-03-08T00:19:26;3.70;;;2.27;;
8098;SDS011;4092;47.876;9.372;2023-03-08T00:21:55;6.03;;;3.00;;
8098;SDS011;4092;47.876;9.372;2023-03-08T00:24:22;4.53;;;3.20;;
8098;SDS011;4092;47.876;9.372;2023-03-08T00:26:49;4.33;;;3.37;;
8098;SDS011;4092;47.876;9.372;2023-03-08T00:29:16;5.53;;;3.63;;
8098;SDS011;4092;47.876;9.372;2023-03-08T00:31:43;6.63;;;3.10;;
8098;SDS011;4092;47.876;9.372;2023-03-08T00:34:10;6.77;;;3.77;;
8098;SDS011;4092;47.876;9.372;2023-03-08T00:36:37;11.60;;;4.70;;
8098;SDS011;4092;47.876;9.372;2023-03-08T00:39:05;4.80;;;3.07;;
8098;SDS011;4092;47.876;9.372;2023-03-08T00:41:32;13.40;;;5.50;;
8098;SDS011;4092;47.876;9.372;2023-03-08T00:43:59;11.47;;;3.40;;
8098;SDS011;4092;47.876;9.372;2023-03-08T00:46:26;6.03;;;3.60;;
8098;SDS011;4092;47.876;9.372;2023-03-08T00:48:53;6.37;;;3.43;;
8098;SDS011;4092;47.876;9.372;2023-03-08T00:51:20;7.10;;;3.63;;
8098;SDS011;4092;47.876;9.372;2023-03-08T00:53:47;7.87;;;5.23;;
8098;SDS011;4092;47.876;9.372;2023-03-08T00:56:16;6.70;;;3.70;;
8098;SDS011;4092;47.876;9.372;2023-03-08T00:58:43;9.00;;;3.83;;
8098;SDS011;4092;47.876;9.372;2023-03-08T01:01:12;5.60;;;3.73;;
8098;SDS011;4092;47.876;9.372;2023-03-08T01:03:40;15.20;;;4.90;;
8098;SDS011;4092;47.876;9.372;2023-03-08T01:06:08;5.63;;;3.10;;
8098;SDS011;4092;47.876;9.372;2023-03-08T01:08:37;8.90;;;4.73;;
8098;SDS011;4092;47.876;9.372;2023-03-08T01:11:06;5.97;;;3.43;;
8098;SDS011;4092;47.876;9.372;2023-03-08T01:13:41;4.83;;;4.13;;
8098;SDS011;4092;47.876;9.372;2023-03-08T01:16:13;9.83;;;4.07;;
8098;SDS011;4092;47.876;9.372;2023-03-08T01:18:40;8.27;;;3.63;;
8098;SDS011;4092;47.876;9.372;2023-03-08T01:21:08;12.50;;;5.27;;
8098;SDS011;4092;47.876;9.372;2023-03-08T01:23:35;13.90;;;5.40;;
8098;SDS011;4092;47.876;9.372;2023-03-08T01:26:03;6.00;;;4.47;;
8098;SDS011;4092;47.876;9.372;2023-03-08T01:28:32;11.97;;;4.30;;
8098;SDS011;4092;47.876;9.372;2023-03-08T01:31:02;10.53;;;4.00;;
8098;SDS011;4092;47.876;9.372;2023-03-08T01:33:30;10.83;;;4.27;;
8098;SDS011;4092;47.876;9.372;2023-03-08T01:35:58;10.57;;;4.33;;
8098;SDS011;4092;47.876;9.372;2023-03-08T01:38:25;6.37;;;3.60;;
8098;SDS011;4092;47.876;9.372;2023-03-08T01:40:55;9.50;;;4.43;;
8098;SDS011;4092;47.876;9.372;2023-03-08T01:43:23;7.50;;;3.40;;
8098;SDS011;4092;47.876;9.372;2023-03-08T01:48:43;16.40;;;6.07;;
8098;SDS011;4092;47.876;9.372;2023-03-08T01:51:14;11.63;;;4.90;;
8098;SDS011;4092;47.876;9.372;2023-03-08T01:53:45;5.70;;;3.30;;
8098;SDS011;4092;47.876;9.372;2023-03-08T01:56:13;13.23;;;5.60;;
8098;SDS011;4092;47.876;9.372;2023-03-08T01:58:43;9.23;;;3.90;;
8098;SDS011;4092;47.876;9.372;2023-03-08T02:01:12;13.73;;;4.57;;
8098;SDS011;4092;47.876;9.372;2023-03-08T02:03:41;6.83;;;4.63;;
8098;SDS011;4092;47.876;9.372;2023-03-08T02:06:09;19.67;;;4.40;;
8098;SDS011;4092;47.876;9.372;2023-03-08T02:08:38;13.67;;;5.13;;
8098;SDS011;4092;47.876;9.372;2023-03-08T02:11:06;9.30;;;3.60;;
8098;SDS011;4092;47.876;9.372;2023-03-08T02:13:34;9.00;;;4.20;;
8098;SDS011;4092;47.876;9.372;2023-03-08T02:16:02;9.07;;;4.13;;
8098;SDS011;4092;47.876;9.372;2023-03-08T02:18:32;8.27;;;4.63;;
8098;SDS011;4092;47.876;9.372;2023-03-08T02:20:59;11.07;;;5.90;;
8098;SDS011;4092;47.876;9.372;2023-03-08T02:23:28;9.00;;;5.43;;
8098;SDS011;4092;47.876;9.372;2023-03-08T02:25:56;19.63;;;5.70;;
8098;SDS011;4092;47.876;9.372;2023-03-08T02:28:25;13.27;;;5.80;;
8098;SDS011;4092;47.876;9.372;2023-03-08T02:30:54;8.13;;;4.37;;
8098;SDS011;4092;47.876;9.372;2023-03-08T02:33:21;10.07;;;5.53;;
8098;SDS011;4092;47.876;9.372;2023-03-08T02:35:49;8.27;;;5.53;;
8098;SDS011;4092;47.876;9.372;2023-03-08T02:38:17;10.60;;;4.57;;
8098;SDS011;4092;47.876;9.372;2023-03-08T02:40:47;15.33;;;5.17;;
8098;SDS011;4092;47.876;9.372;2023-03-08T02:43:15;6.10;;;3.83;;
8098;SDS011;4092;47.876;9.372;2023-03-08T02:45:42;12.70;;;4.70;;
8098;SDS011;4092;47.876;9.372;2023-03-08T02:48:09;9.47;;;5.23;;
8098;SDS011;4092;47.876;9.372;2023-03-08T02:50:36;12.50;;;6.00;;
8098;SDS011;4092;47.876;9.372;2023-03-08T02:53:03;8.43;;;4.50;;
8098;SDS011;4092;47.876;9.372;2023-03-08T02:55:30;9.43;;;5.00;;
8098;SDS011;4092;47.876;9.372;2023-03-08T02:58:01;11.50;;;5.00;;
8098;SDS011;4092;47.876;9.372;2023-03-08T03:00:28;20.70;;;5.40;;
8098;SDS011;4092;47.876;9.372;2023-03-08T03:02:55;8.93;;;4.20;;
8098;SDS011;4092;47.876;9.372;2023-03-08T03:05:22;7.57;;;4.63;;
8098;SDS011;4092;47.876;9.372;2023-03-08T03:07:50;9.47;;;3.80;;
8098;SDS011;4092;47.876;9.372;2023-03-08T03:10:17;11.83;;;4.20;;
8098;SDS011;4092;47.876;9.372;2023-03-08T03:12:44;13.40;;;4.73;;
8098;SDS011;4092;47.876;9.372;2023-03-08T03:15:12;10.10;;;4.90;;
8098;SDS011;4092;47.876;9.372;2023-03-08T03:17:39;9.10;;;6.30;;
8098;SDS011;4092;47.876;9.372;2023-03-08T03:20:07;10.73;;;4.73;;
8098;SDS011;4092;47.876;9.372;2023-03-08T03:22:36;11.33;;;6.70;;
8098;SDS011;4092;47.876;9.372;2023-03-08T03:25:03;8.27;;;4.30;;
8098;SDS011;4092;47.876;9.372;2023-03-08T03:27:31;10.00;;;4.30;;
8098;SDS011;4092;47.876;9.372;2023-03-08T03:29:58;9.63;;;4.37;;
8098;SDS011;4092;47.876;9.372;2023-03-08T03:32:26;6.40;;;4.77;;
8098;SDS011;4092;47.876;9.372;2023-03-08T03:34:53;10.23;;;5.50;;
8098;SDS011;4092;47.876;9.372;2023-03-08T03:37:20;13.37;;;5.77;;
8098;SDS011;4092;47.876;9.372;2023-03-08T03:39:47;11.17;;;5.40;;
8098;SDS011;4092;47.876;9.372;2023-03-08T03:42:14;7.17;;;4.80;;
8098;SDS011;4092;47.876;9.372;2023-03-08T03:44:41;10.30;;;4.63;;
8098;SDS011;4092;47.876;9.372;2023-03-08T03:47:09;12.97;;;4.33;;
8098;SDS011;4092;47.876;9.372;2023-03-08T03:49:37;11.93;;;5.73;;
8098;SDS011;4092;47.876;9.372;2023-03-08T03:52:04;15.87;;;6.10;;
8098;SDS011;4092;47.876;9.372;2023-03-08T03:54:31;9.80;;;5.20;;
8098;SDS011;4092;47.876;9.372;2023-03-08T03:56:59;11.87;;;5.43;;
8098;SDS011;4092;47.876;9.372;2023-03-08T03:59:26;14.43;;;5.20;;
8098;SDS011;4092;47.876;9.372;2023-03-08T04:01:53;7.97;;;4.60;;
8098;SDS011;4092;47.876;9.372;2023-03-08T04:04:20;9.60;;;4.40;;
8098;SDS011;4092;47.876;9.372;2023-03-08T04:06:48;18.10;;;6.47;;
8098;SDS011;4092;47.876;9.372;2023-03-08T04:09:16;13.73;;;5.80;;
8098;SDS011;4092;47.876;9.372;2023-03-08T04:11:44;12.57;;;5.20;;
8098;SDS011;4092;47.876;9.372;2023-03-08T04:14:11;9.20;;;4.67;;
8098;SDS011;4092;47.876;9.372;2023-03-08T04:16:38;14.63;;;6.37;;
8098;SDS011;4092;47.876;9.372;2023-03-08T04:19:06;14.60;;;5.97;;
8098;SDS011;4092;47.876;9.372;2023-03-08T04:21:36;9.50;;;4.73;;
8098;SDS011;4092;47.876;9.372;2023-03-08T04:24:05;11.30;;;5.03;;
8098;SDS011;4092;47.876;9.372;2023-03-08T04:26:32;8.53;;;5.10;;
8098;SDS011;4092;47.876;9.372;2023-03-08T04:28:59;13.47;;;5.07;;
8098;SDS011;4092;47.876;9.372;2023-03-08T04:31:30;16.73;;;6.03;;
8098;SDS011;4092;47.876;9.372;2023-03-08T04:33:59;10.40;;;6.40;;
8098;SDS011;4092;47.876;9.372;2023-03-08T04:36:26;10.60;;;5.60;;
8098;SDS011;4092;47.876;9.372;2023-03-08T04:38:53;8.03;;;5.50;;
8098;SDS011;4092;47.876;9.372;2023-03-08T04:41:22;11.00;;;6.40;;
8098;SDS011;4092;47.876;9.372;2023-03-08T04:43:50;9.67;;;5.30;;
8098;SDS011;4092;47.876;9.372;2023-03-08T04:46:19;12.63;;;5.03;;
8098;SDS011;4092;47.876;9.372;2023-03-08T04:48:47;8.00;;;4.77;;
8098;SDS011;4092;47.876;9.372;2023-03-08T04:51:17;6.17;;;4.23;;
8098;SDS011;4092;47.876;9.372;2023-03-08T04:53:44;13.43;;;5.40;;
8098;SDS011;4092;47.876;9.372;2023-03-08T04:56:12;14.07;;;5.17;;
8098;SDS011;4092;47.876;9.372;2023-03-08T04:58:41;12.03;;;5.37;;
8098;SDS011;4092;47.876;9.372;2023-03-08T05:01:09;14.73;;;6.00;;
8098;SDS011;4092;47.876;9.372;2023-03-08T05:03:37;17.33;;;6.77;;
8098;SDS011;4092;47.876;9.372;2023-03-08T05:06:04;28.13;;;6.97;;
8098;SDS011;4092;47.876;9.372;2023-03-08T05:08:31;6.17;;;3.77;;
8098;SDS011;4092;47.876;9.372;2023-03-08T05:10:59;13.60;;;6.77;;
8098;SDS011;4092;47.876;9.372;2023-03-08T05:13:27;7.63;;;5.37;;
8098;SDS011;4092;47.876;9.372;2023-03-08T05:15:58;10.53;;;5.73;;
8098;SDS011;4092;47.876;9.372;2023-03-08T05:18:25;13.70;;;5.50;;
8098;SDS011;4092;47.876;9.372;2023-03-08T05:20:53;12.50;;;5.10;;
8098;SDS011;4092;47.876;9.372;2023-03-08T05:23:20;6.37;;;3.80;;
8098;SDS011;4092;47.876;9.372;2023-03-08T05:25:50;11.83;;;5.27;;
8098;SDS011;4092;47.876;9.372;2023-03-08T05:28:18;9.03;;;3.90;;
8098;SDS011;4092;47.876;9.372;2023-03-08T05:30:45;11.00;;;5.50;;
8098;SDS011;4092;47.876;9.372;2023-03-08T05:33:14;7.07;;;4.57;;
8098;SDS011;4092;47.876;9.372;2023-03-08T05:35:42;9.20;;;3.77;;
8098;SDS011;4092;47.876;9.372;2023-03-08T05:38:09;5.20;;;3.23;;
8098;SDS011;4092;47.876;9.372;2023-03-08T05:40:36;4.67;;;3.80;;
8098;SDS011;4092;47.876;9.372;2023-03-08T05:43:03;10.07;;;4.00;;
8098;SDS011;4092;47.876;9.372;2023-03-08T05:45:30;9.20;;;4.33;;
8098;SDS011;4092;47.876;9.372;2023-03-08T05:47:57;8.17;;;4.27;;
8098;SDS011;4092;47.876;9.372;2023-03-08T05:50:26;10.37;;;4.37;;
8098;SDS011;4092;47.876;9.372;2023-03-08T05:52:53;5.13;;;3.13;;
8098;SDS011;4092;47.876;9.372;2023-03-08T05:55:19;7.23;;;4.10;;
8098;SDS011;4092;47.876;9.372;2023-03-08T05:57:46;10.00;;;4.53;;
8098;SDS011;4092;47.876;9.372;2023-03-08T06:00:14;5.90;;;4.40;;
8098;SDS011;4092;47.876;9.372;2023-03-08T06:02:42;11.17;;;5.20;;
8098;SDS011;4092;47.876;9.372;2023-03-08T06:05:09;11.10;;;4.37;;
8098;SDS011;4092;47.876;9.372;2023-03-08T06:07:37;18.00;;;5.83;;
8098;SDS011;4092;47.876;9.372;2023-03-08T06:10:06;7.00;;;4.50;;
8098;SDS011;4092;47.876;9.372;2023-03-08T06:12:33;9.23;;;4.17;;
8098;SDS011;4092;47.876;9.372;2023-03-08T06:15:00;12.33;;;4.70;;
8098;SDS011;4092;47.876;9.372;2023-03-08T06:17:27;7.23;;;5.10;;
8098;SDS011;4092;47.876;9.372;2023-03-08T06:19:54;16.67;;;6.40;;
8098;SDS011;4092;47.876;9.372;2023-03-08T06:22:21;7.40;;;5.13;;
8098;SDS011;4092;47.876;9.372;2023-03-08T06:24:50;6.40;;;4.30;;
8098;SDS011;4092;47.876;9.372;2023-03-08T06:27:18;8.33;;;4.33;;
8098;SDS011;4092;47.876;9.372;2023-03-08T06:29:45;10.50;;;6.00;;
8098;SDS011;4092;47.876;9.372;2023-03-08T06:32:14;8.63;;;5.30;;
8098;SDS011;4092;47.876;9.372;2023-03-08T06:34:41;13.43;;;3.80;;
8098;SDS011;4092;47.876;9.372;2023-03-08T06:37:09;15.07;;;6.53;;
8098;SDS011;4092;47.876;9.372;2023-03-08T06:39:36;10.50;;;4.93;;
8098;SDS011;4092;47.876;9.372;2023-03-08T06:42:04;6.90;;;3.37;;
8098;SDS011;4092;47.876;9.372;2023-03-08T06:44:31;6.40;;;4.73;;
8098;SDS011;4092;47.876;9.372;2023-03-08T06:47:00;7.90;;;3.87;;
8098;SDS011;4092;47.876;9.372;2023-03-08T06:49:45;6.30;;;3.73;;
8098;SDS011;4092;47.876;9.372;2023-03-08T06:52:12;8.87;;;4.77;;
8098;SDS011;4092;47.876;9.372;2023-03-08T06:54:39;9.63;;;5.00;;
8098;SDS011;4092;47.876;9.372;2023-03-08T06:57:07;11.67;;;6.53;;
8098;SDS011;4092;47.876;9.372;2023-03-08T06:59:34;8.73;;;4.43;;
8098;SDS011;4092;47.876;9.372;2023-03-08T07:02:01;12.17;;;3.90;;
8098;SDS011;4092;47.876;9.372;2023-03-08T07:04:28;4.80;;;3.00;;
8098;SDS011;4092;47.876;9.372;2023-03-08T07:06:55;10.20;;;3.90;;
8098;SDS011;4092;47.876;9.372;2023-03-08T07:09:23;9.03;;;4.23;;
8098;SDS011;4092;47.876;9.372;2023-03-08T07:11:50;9.70;;;3.90;;
8098;SDS011;4092;47.876;9.372;2023-03-08T07:14:18;5.83;;;3.90;;
8098;SDS011;4092;47.876;9.372;2023-03-08T07:16:45;7.13;;;4.53;;
8098;SDS011;4092;47.876;9.372;2023-03-08T07:19:12;10.30;;;6.73;;
8098;SDS011;4092;47.876;9.372;2023-03-08T07:21:39;8.93;;;4.50;;
8098;SDS011;4092;47.876;9.372;2023-03-08T07:24:08;5.93;;;4.87;;
8098;SDS011;4092;47.876;9.372;2023-03-08T07:26:35;9.27;;;3.53;;
8098;SDS011;4092;47.876;9.372;2023-03-08T07:29:02;7.00;;;3.27;;
8098;SDS011;4092;47.876;9.372;2023-03-08T07:31:30;8.30;;;3.37;;
8098;SDS011;4092;47.876;9.372;2023-03-08T07:34:00;14.10;;;4.73;;
8098;SDS011;4092;47.876;9.372;2023-03-08T07:36:27;7.57;;;4.47;;
8098;SDS011;4092;47.876;9.372;2023-03-08T07:38:54;7.63;;;4.50;;
8098;SDS011;4092;47.876;9.372;2023-03-08T07:41:21;7.93;;;3.93;;
8098;SDS011;4092;47.876;9.372;2023-03-08T07:43:48;7.60;;;4.20;;
8098;SDS011;4092;47.876;9.372;2023-03-08T07:46:15;11.90;;;3.73;;
8098;SDS011;4092;47.876;9.372;2023-03-08T07:48:43;8.47;;;4.70;;
8098;SDS011;4092;47.876;9.372;2023-03-08T07:51:10;9.40;;;4.30;;
8098;SDS011;4092;47.876;9.372;2023-03-08T07:53:37;4.90;;;3.27;;
8098;SDS011;4092;47.876;9.372;2023-03-08T07:56:04;7.10;;;4.50;;
8098;SDS011;4092;47.876;9.372;2023-03-08T07:58:32;7.23;;;4.17;;
8098;SDS011;4092;47.876;9.372;2023-03-08T08:00:59;12.63;;;5.10;;
8098;SDS011;4092;47.876;9.372;2023-03-08T08:03:27;3.70;;;2.93;;
8098;SDS011;4092;47.876;9.372;2023-03-08T08:06:00;11.90;;;4.80;;
8098;SDS011;4092;47.876;9.372;2023-03-08T08:08:30;6.57;;;4.33;;
8098;SDS011;4092;47.876;9.372;2023-03-08T08:10:57;4.77;;;3.00;;
8098;SDS011;4092;47.876;9.372;2023-03-08T08:13:25;7.07;;;3.90;;
8098;SDS011;4092;47.876;9.372;2023-03-08T08:16:01;6.63;;;4.07;;
8098;SDS011;4092;47.876;9.372;2023-03-08T08:18:28;7.13;;;4.53;;
8098;SDS011;4092;47.876;9.372;2023-03-08T08:21:00;9.70;;;3.90;;
8098;SDS011;4092;47.876;9.372;2023-03-08T08:23:28;8.87;;;4.67;;
8098;SDS011;4092;47.876;9.372;2023-03-08T08:25:55;11.17;;;4.63;;
8098;SDS011;4092;47.876;9.372;2023-03-08T08:28:22;6.43;;;3.10;;
8098;SDS011;4092;47.876;9.372;2023-03-08T08:30:56;8.50;;;3.70;;
8098;SDS011;4092;47.876;9.372;2023-03-08T08:33:25;6.00;;;3.93;;
8098;SDS011;4092;47.876;9.372;2023-03-08T08:35:53;9.97;;;4.23;;
8098;SDS011;4092;47.876;9.372;2023-03-08T08:38:22;7.57;;;5.63;;
8098;SDS011;4092;47.876;9.372;2023-03-08T08:40:49;6.37;;;3.10;;
8098;SDS011;4092;47.876;9.372;2023-03-08T08:43:17;8.17;;;5.60;;
8098;SDS011;4092;47.876;9.372;2023-03-08T08:45:44;8.13;;;4.00;;
8098;SDS011;4092;47.876;9.372;2023-03-08T08:48:12;11.30;;;5.43;;
8098;SDS011;4092;47.876;9.372;2023-03-08T08:50:40;8.90;;;4.20;;
8098;SDS011;4092;47.876;9.372;2023-03-08T08:53:08;7.10;;;4.57;;
8098;SDS011;4092;47.876;9.372;2023-03-08T08:55:36;4.20;;;2.40;;
8098;SDS011;4092;47.876;9.372;2023-03-08T08:58:03;4.60;;;2.50;;
8098;SDS011;4092;47.876;9.372;2023-03-08T09:00:32;9.00;;;4.03;;
8098;SDS011;4092;47.876;9.372;2023-03-08T09:03:00;4.33;;;2.87;;
8098;SDS011;4092;47.876;9.372;2023-03-08T09:05:28;5.20;;;2.30;;
8098;SDS011;4092;47.876;9.372;2023-03-08T09:07:56;4.90;;;3.57;;
8098;SDS011;4092;47.876;9.372;2023-03-08T09:10:23;7.40;;;2.90;;
8098;SDS011;4092;47.876;9.372;2023-03-08T09:12:52;4.23;;;2.37;;
8098;SDS011;4092;47.876;9.372;2023-03-08T09:15:20;4.03;;;2.57;;
8098;SDS011;4092;47.876;9.372;2023-03-08T09:17:47;3.17;;;2.47;;
8098;SDS011;4092;47.876;9.372;2023-03-08T09:20:14;5.33;;;1.90;;
8098;SDS011;4092;47.876;9.372;2023-03-08T09:22:42;7.03;;;2.97;;
8098;SDS011;4092;47.876;9.372;2023-03-08T09:25:09;9.60;;;3.00;;
8098;SDS011;4092;47.876;9.372;2023-03-08T09:27:38;5.03;;;2.90;;
8098;SDS011;4092;47.876;9.372;2023-03-08T09:30:09;10.30;;;3.23;;
8098;SDS011;4092;47.876;9.372;2023-03-08T09:32:38;3.73;;;2.70;;
8098;SDS011;4092;47.876;9.372;2023-03-08T09:35:05;7.53;;;2.30;;
8098;SDS011;4092;47.876;9.372;2023-03-08T09:37:33;5.93;;;2.60;;
8098;SDS011;4092;47.876;9.372;2023-03-08T09:40:00;4.13;;;3.00;;
8098;SDS011;4092;47.876;9.372;2023-03-08T09:42:33;5.13;;;2.50;;
8098;SDS011;4092;47.876;9.372;2023-03-08T09:45:13;3.00;;;2.30;;
8098;SDS011;4092;47.876;9.372;2023-03-08T09:47:46;4.50;;;2.43;;
8098;SDS011;4092;47.876;9.372;2023-03-08T09:50:25;7.93;;;2.37;;
8098;SDS011;4092;47.876;9.372;2023-03-08T09:52:59;4.30;;;2.53;;
8098;SDS011;4092;47.876;9.372;2023-03-08T09:55:33;4.27;;;2.70;;
8098;SDS011;4092;47.876;9.372;2023-03-08T09:58:03;3.43;;;2.13;;
8098;SDS011;4092;47.876;9.372;2023-03-08T10:00:44;3.53;;;2.50;;
8098;SDS011;4092;47.876;9.372;2023-03-08T10:03:22;6.80;;;2.20;;
8098;SDS011;4092;47.876;9.372;2023-03-08T10:06:10;5.37;;;3.27;;
8098;SDS011;4092;47.876;9.372;2023-03-08T10:08:42;5.67;;;3.77;;
8098;SDS011;4092;47.876;9.372;2023-03-08T10:11:18;3.67;;;3.33;;
8098;SDS011;4092;47.876;9.372;2023-03-08T10:13:53;3.30;;;3.00;;
8098;SDS011;4092;47.876;9.372;2023-03-08T10:16:27;3.60;;;1.83;;
8098;SDS011;4092;47.876;9.372;2023-03-08T10:18:57;3.83;;;2.03;;
8098;SDS011;4092;47.876;9.372;2023-03-08T10:21:30;3.93;;;2.10;;
8098;SDS011;4092;47.876;9.372;2023-03-08T10:24:00;4.50;;;3.83;;
8098;SDS011;4092;47.876;9.372;2023-03-08T10:26:36;3.43;;;2.87;;
8098;SDS011;4092;47.876;9.372;2023-03-08T10:29:05;3.13;;;2.83;;
8098;SDS011;4092;47.876;9.372;2023-03-08T10:31:33;3.80;;;2.10;;
8098;SDS011;4092;47.876;9.372;2023-03-08T10:34:02;3.20;;;2.43;;
8098;SDS011;4092;47.876;9.372;2023-03-08T10:36:45;4.40;;;1.70;;
8098;SDS011;4092;47.876;9.372;2023-03-08T10:39:14;2.80;;;2.17;;
8098;SDS011;4092;47.876;9.372;2023-03-08T10:41:43;1.80;;;1.70;;
8098;SDS011;4092;47.876;9.372;2023-03-08T10:44:13;2.27;;;1.57;;
8098;SDS011;4092;47.876;9.372;2023-03-08T10:46:47;2.20;;;1.70;;
8098;SDS011;4092;47.876;9.372;2023-03-08T10:49:16;7.03;;;3.63;;
8098;SDS011;4092;47.876;9.372;2023-03-08T10:51:51;4.60;;;2.07;;
8098;SDS011;4092;47.876;9.372;2023-03-08T10:54:20;9.33;;;2.83;;
8098;SDS011;4092;47.876;9.372;2023-03-08T10:56:50;3.67;;;1.87;;
8098;SDS011;4092;47.876;9.372;2023-03-08T10:59:20;1.63;;;1.53;;
8098;SDS011;4092;47.876;9.372;2023-03-08T11:01:54;1.60;;;1.40;;
8098;SDS011;4092;47.876;9.372;2023-03-08T11:04:23;4.40;;;2.10;;
8098;SDS011;4092;47.876;9.372;2023-03-08T11:06:52;5.70;;;2.53;;
8098;SDS011;4092;47.876;9.372;2023-03-08T11:09:20;8.27;;;2.03;;
8098;SDS011;4092;47.876;9.372;2023-03-08T11:11:48;2.50;;;2.20;;
8098;SDS011;4092;47.876;9.372;2023-03-08T11:14:16;5.10;;;4.50;;
8098;SDS011;4092;47.876;9.372;2023-03-08T11:16:48;3.57;;;2.30;;
8098;SDS011;4092;47.876;9.372;2023-03-08T11:19:28;1.73;;;1.63;;
8098;SDS011;4092;47.876;9.372;2023-03-08T11:22:17;3.00;;;2.23;;
8098;SDS011;4092;47.876;9.372;2023-03-08T11:24:51;2.20;;;1.70;;
8098;SDS011;4092;47.876;9.372;2023-03-08T11:27:40;4.70;;;2.43;;
8098;SDS011;4092;47.876;9.372;2023-03-08T11:30:19;4.63;;;1.83;;
8098;SDS011;4092;47.876;9.372;2023-03-08T11:32:59;7.63;;;1.77;;
8098;SDS011;4092;47.876;9.372;2023-03-08T11:35:50;2.40;;;2.07;;
8098;SDS011;4092;47.876;9.372;2023-03-08T11:38:21;2.47;;;1.40;;
8098;SDS011;4092;47.876;9.372;2023-03-08T11:40:54;4.63;;;1.70;;
8098;SDS011;4092;47.876;9.372;2023-03-08T11:43:32;1.53;;;1.43;;
8098;SDS011;4092;47.876;9.372;2023-03-08T11:46:14;2.73;;;1.70;;
8098;SDS011;4092;47.876;9.372;2023-03-08T11:51:46;1.80;;;1.37;;
8098;SDS011;4092;47.876;9.372;2023-03-08T11:54:18;1.83;;;1.73;;
8098;SDS011;4092;47.876;9.372;2023-03-08T11:56:56;1.40;;;1.30;;
8098;SDS011;4092;47.876;9.372;2023-03-08T11:59:28;3.73;;;1.37;;
8098;SDS011;4092;47.876;9.372;2023-03-08T12:01:59;1.83;;;1.43;;
8098;SDS011;4092;47.876;9.372;2023-03-08T12:04:36;1.90;;;1.80;;
8098;SDS011;4092;47.876;9.372;2023-03-08T12:07:10;4.83;;;2.00;;
8098;SDS011;4092;47.876;9.372;2023-03-08T12:09:45;2.13;;;1.33;;
8098;SDS011;4092;47.876;9.372;2023-03-08T12:12:19;1.87;;;1.63;;
8098;SDS011;4092;47.876;9.372;2023-03-08T12:14:51;1.80;;;1.30;;
8098;SDS011;4092;47.876;9.372;2023-03-08T12:17:23;2.13;;;1.27;;
8098;SDS011;4092;47.876;9.372;2023-03-08T12:19:55;2.13;;;1.83;;
8098;SDS011;4092;47.876;9.372;2023-03-08T12:22:27;1.50;;;1.33;;
8098;SDS011;4092;47.876;9.372;2023-03-08T12:25:05;1.70;;;1.20;;
8098;SDS011;4092;47.876;9.372;2023-03-08T12:27:38;2.00;;;1.80;;
8098;SDS011;4092;47.876;9.372;2023-03-08T12:30:15;1.67;;;1.43;;
8098;SDS011;4092;47.876;9.372;2023-03-08T12:32:47;2.80;;;1.43;;
8098;SDS011;4092;47.876;9.372;2023-03-08T12:35:27;1.63;;;1.53;;
8098;SDS011;4092;47.876;9.372;2023-03-08T12:37:59;1.33;;;0.93;;
8098;SDS011;4092;47.876;9.372;2023-03-08T12:40:36;2.03;;;1.27;;
8098;SDS011;4092;47.876;9.372;2023-03-08T12:43:09;2.80;;;1.40;;
8098;SDS011;4092;47.876;9.372;2023-03-08T12:45:38;2.13;;;1.40;;
8098;SDS011;4092;47.876;9.372;2023-03-08T12:48:15;5.70;;;2.23;;
8098;SDS011;4092;47.876;9.372;2023-03-08T12:51:00;1.93;;;1.40;;
8098;SDS011;4092;47.876;9.372;2023-03-08T12:53:31;1.70;;;1.27;;
8098;SDS011;4092;47.876;9.372;2023-03-08T12:56:11;2.77;;;1.77;;
8098;SDS011;4092;47.876;9.372;2023-03-08T12:58:48;2.77;;;1.60;;
8098;SDS011;4092;47.876;9.372;2023-03-08T13:01:23;1.10;;;0.93;;
8098;SDS011;4092;47.876;9.372;2023-03-08T13:04:04;1.97;;;1.50;;
8098;SDS011;4092;47.876;9.372;2023-03-08T13:09:42;1.60;;;1.50;;
8098;SDS011;4092;47.876;9.372;2023-03-08T13:15:23;1.20;;;1.10;;
8098;SDS011;4092;47.876;9.372;2023-03-08T13:17:55;3.47;;;1.90;;
8098;SDS011;4092;47.876;9.372;2023-03-08T13:20:29;1.83;;;1.73;;
8098;SDS011;4092;47.876;9.372;2023-03-08T13:23:17;1.20;;;1.00;;
8098;SDS011;4092;47.876;9.372;2023-03-08T13:25:56;1.00;;;0.90;;
8098;SDS011;4092;47.876;9.372;2023-03-08T13:28:35;1.60;;;1.20;;
8098;SDS011;4092;47.876;9.372;2023-03-08T13:31:09;1.83;;;1.23;;
8098;SDS011;4092;47.876;9.372;2023-03-08T13:33:40;1.10;;;1.00;;
8098;SDS011;4092;47.876;9.372;2023-03-08T13:36:14;1.50;;;1.40;;
8098;SDS011;4092;47.876;9.372;2023-03-08T13:38:43;1.20;;;0.97;;
8098;SDS011;4092;47.876;9.372;2023-03-08T13:41:30;1.43;;;1.33;;
8098;SDS011;4092;47.876;9.372;2023-03-08T13:44:01;1.57;;;1.07;;
8098;SDS011;4092;47.876;9.372;2023-03-08T13:46:29;1.80;;;1.40;;
8098;SDS011;4092;47.876;9.372;2023-03-08T13:48:56;1.97;;;1.20;;
8098;SDS011;4092;47.876;9.372;2023-03-08T13:51:24;3.03;;;1.17;;
8098;SDS011;4092;47.876;9.372;2023-03-08T13:53:53;1.63;;;1.20;;
8098;SDS011;4092;47.876;9.372;2023-03-08T13:56:22;1.30;;;1.07;;
8098;SDS011;4092;47.876;9.372;2023-03-08T13:58:53;2.17;;;1.37;;
8098;SDS011;4092;47.876;9.372;2023-03-08T14:01:22;1.20;;;1.10;;
8098;SDS011;4092;47.876;9.372;2023-03-08T14:03:51;2.20;;;1.50;;
8098;SDS011;4092;47.876;9.372;2023-03-08T14:06:22;1.63;;;1.30;;
8098;SDS011;4092;47.876;9.372;2023-03-08T14:08:52;1.73;;;1.53;;
8098;SDS011;4092;47.876;9.372;2023-03-08T14:11:23;1.47;;;1.37;;
8098;SDS011;4092;47.876;9.372;2023-03-08T14:13:55;1.60;;;1.50;;
8098;SDS011;4092;47.876;9.372;2023-03-08T14:16:26;1.67;;;1.40;;
8098;SDS011;4092;47.876;9.372;2023-03-08T14:18:56;1.97;;;1.13;;
8098;SDS011;4092;47.876;9.372;2023-03-08T14:21:24;1.97;;;1.60;;
8098;SDS011;4092;47.876;9.372;2023-03-08T14:23:53;2.07;;;1.10;;
8098;SDS011;4092;47.876;9.372;2023-03-08T14:26:25;1.03;;;0.90;;
8098;SDS011;4092;47.876;9.372;2023-03-08T14:29:08;2.37;;;1.37;;
8098;SDS011;4092;47.876;9.372;2023-03-08T14:31:55;1.63;;;1.20;;
8098;SDS011;4092;47.876;9.372;2023-03-08T14:34:29;2.17;;;1.10;;
8098;SDS011;4092;47.876;9.372;2023-03-08T14:37:01;2.90;;;1.23;;
8098;SDS011;4092;47.876;9.372;2023-03-08T14:39:31;2.00;;;1.00;;
8098;SDS011;4092;47.876;9.372;2023-03-08T14:42:07;0.90;;;0.80;;
8098;SDS011;4092;47.876;9.372;2023-03-08T14:44:37;1.00;;;0.90;;
8098;SDS011;4092;47.876;9.372;2023-03-08T14:47:08;1.17;;;1.00;;
8098;SDS011;4092;47.876;9.372;2023-03-08T14:49:35;2.07;;;1.80;;
8098;SDS011;4092;47.876;9.372;2023-03-08T14:52:02;1.00;;;0.80;;
8098;SDS011;4092;47.876;9.372;2023-03-08T14:54:30;1.10;;;0.80;;
8098;SDS011;4092;47.876;9.372;2023-03-08T14:57:08;1.73;;;1.00;;
8098;SDS011;4092;47.876;9.372;2023-03-08T14:59:43;1.60;;;1.30;;
8098;SDS011;4092;47.876;9.372;2023-03-08T15:02:11;1.53;;;1.10;;
8098;SDS011;4092;47.876;9.372;2023-03-08T15:04:39;1.10;;;0.70;;
8098;SDS011;4092;47.876;9.372;2023-03-08T15:07:06;1.10;;;0.77;;
8098;SDS011;4092;47.876;9.372;2023-03-08T15:09:39;0.90;;;0.80;;
8098;SDS011;4092;47.876;9.372;2023-03-08T15:12:08;0.90;;;0.73;;
8098;SDS011;4092;47.876;9.372;2023-03-08T15:14:36;1.00;;;0.90;;
8098;SDS011;4092;47.876;9.372;2023-03-08T15:17:04;0.90;;;0.60;;
8098;SDS011;4092;47.876;9.372;2023-03-08T15:19:31;1.07;;;0.80;;
8098;SDS011;4092;47.876;9.372;2023-03-08T15:21:58;2.10;;;0.70;;
8098;SDS011;4092;47.876;9.372;2023-03-08T15:24:25;2.00;;;0.77;;
8098;SDS011;4092;47.876;9.372;2023-03-08T15:26:53;1.27;;;1.07;;
8098;SDS011;4092;47.876;9.372;2023-03-08T15:29:25;1.00;;;0.80;;
8098;SDS011;4092;47.876;9.372;2023-03-08T15:31:54;1.00;;;0.90;;
8098;SDS011;4092;47.876;9.372;2023-03-08T15:34:23;3.47;;;1.10;;
8098;SDS011;4092;47.876;9.372;2023-03-08T15:36:51;1.33;;;1.03;;
8098;SDS011;4092;47.876;9.372;2023-03-08T15:39:18;1.77;;;1.07;;
8098;SDS011;4092;47.876;9.372;2023-03-08T15:41:46;1.63;;;1.07;;